createdAt,value
2018-04-16T00:00:30.675Z,13.99
2018-04-16T00:01:29.828Z,14.00
2018-04-16T00:03:24.281Z,13.95
2018-04-16T00:04:23.497Z,13.85
2018-04-16T00:06:17.073Z,13.95
2018-04-16T00:07:17.044Z,13.79
2018-04-16T00:09:10.669Z,13.85
2018-04-16T00:10:10.636Z,13.75
2018-04-16T00:12:04.272Z,13.78
2018-04-16T00:13:04.239Z,13.74
2018-04-16T00:14:57.974Z,13.70
2018-04-16T00:15:57.959Z,13.71
2018-04-16T00:17:51.579Z,13.71
2018-04-16T00:18:51.551Z,13.70
2018-04-16T00:20:45.980Z,13.71
2018-04-16T00:21:45.195Z,13.65
2018-04-16T00:23:38.718Z,13.65
2018-04-16T00:24:38.683Z,13.65
2018-04-16T00:26:32.358Z,13.62
2018-04-16T00:27:32.314Z,13.59
2018-04-16T00:29:25.831Z,13.53
2018-04-16T00:30:25.817Z,13.62
2018-04-16T00:32:20.248Z,13.53
2018-04-16T00:33:19.380Z,13.52
2018-04-16T00:35:13.804Z,13.60
2018-04-16T00:36:13.015Z,13.52
2018-04-16T00:38:06.657Z,13.50
2018-04-16T00:39:06.626Z,13.53
2018-04-16T00:41:00.242Z,13.50
2018-04-16T00:42:00.211Z,13.50
2018-04-16T00:43:53.788Z,13.47
2018-04-16T00:44:53.777Z,13.42
2018-04-16T00:46:48.214Z,13.52
2018-04-16T00:47:47.437Z,13.41
2018-04-16T00:49:41.138Z,13.44
2018-04-16T00:50:41.098Z,13.44
2018-04-16T00:52:35.535Z,13.37
2018-04-16T00:53:34.707Z,13.31
2018-04-16T00:55:28.364Z,13.41
2018-04-16T00:56:28.339Z,13.42
2018-04-16T00:58:21.877Z,13.35
2018-04-16T00:59:21.827Z,13.31
2018-04-16T01:01:16.265Z,13.30
2018-04-16T01:02:15.496Z,13.22
2018-04-16T01:04:09.149Z,13.20
2018-04-16T01:05:09.125Z,13.23
2018-04-16T01:07:03.548Z,13.27
2018-04-16T01:08:02.634Z,13.27
2018-04-16T01:09:56.326Z,13.23
2018-04-16T01:10:56.277Z,13.25
2018-04-16T01:12:49.956Z,13.31
2018-04-16T01:13:49.898Z,13.20
2018-04-16T01:14:49.897Z,13.22
2018-04-16T01:15:49.888Z,13.19
2018-04-16T01:16:49.880Z,13.23
2018-04-16T01:17:49.877Z,13.18
2018-04-16T01:18:49.877Z,13.18
2018-04-16T01:19:49.860Z,13.12
2018-04-16T01:20:49.854Z,13.20
2018-04-16T01:21:49.847Z,13.15
2018-04-16T01:22:49.842Z,13.12
2018-04-16T01:23:49.835Z,13.11
2018-04-16T01:24:49.826Z,13.09
2018-04-16T01:25:49.828Z,13.16
2018-04-16T01:26:49.814Z,13.11
2018-04-16T01:27:49.810Z,13.18
2018-04-16T01:28:49.802Z,13.16
2018-04-16T01:29:49.795Z,13.03
2018-04-16T01:30:49.788Z,13.13
2018-04-16T01:31:49.781Z,13.08
2018-04-16T01:32:49.777Z,13.11
2018-04-16T01:33:49.767Z,13.13
2018-04-16T01:34:49.763Z,13.08
2018-04-16T01:35:49.761Z,13.05
2018-04-16T01:36:49.749Z,13.09
2018-04-16T01:37:49.745Z,13.11
2018-04-16T01:38:49.733Z,13.04
2018-04-16T01:39:49.728Z,13.12
2018-04-16T01:40:49.722Z,13.08
2018-04-16T01:41:49.715Z,13.04
2018-04-16T01:42:49.710Z,13.04
2018-04-16T01:43:49.702Z,13.04
2018-04-16T01:44:49.691Z,12.97
2018-04-16T01:45:49.686Z,13.03
2018-04-16T01:46:49.681Z,12.97
2018-04-16T01:47:49.677Z,13.03
2018-04-16T01:48:49.668Z,12.95
2018-04-16T01:49:49.662Z,13.01
2018-04-16T01:50:49.655Z,13.01
2018-04-16T01:51:49.646Z,12.94
2018-04-16T01:52:49.637Z,12.90
2018-04-16T01:53:49.640Z,12.95
2018-04-16T01:54:49.628Z,12.93
2018-04-16T01:55:49.618Z,12.93
2018-04-16T01:56:49.612Z,12.94
2018-04-16T01:57:49.606Z,12.90
2018-04-16T01:58:49.597Z,12.91
2018-04-16T01:59:49.591Z,12.87
2018-04-16T02:00:49.586Z,12.90
2018-04-16T02:01:49.579Z,12.91
2018-04-16T02:02:49.570Z,12.93
2018-04-16T02:03:49.569Z,12.87
2018-04-16T02:04:49.555Z,12.87
2018-04-16T02:05:49.566Z,12.87
2018-04-16T02:06:49.549Z,12.85
2018-04-16T02:07:49.536Z,12.82
2018-04-16T02:08:49.530Z,12.80
2018-04-16T02:09:49.523Z,12.79
2018-04-16T02:10:49.515Z,12.78
2018-04-16T02:11:49.504Z,12.79
2018-04-16T02:12:49.503Z,12.83
2018-04-16T02:13:49.493Z,12.82
2018-04-16T02:14:49.485Z,12.75
2018-04-16T02:15:49.483Z,12.83
2018-04-16T02:16:49.471Z,12.82
2018-04-16T02:17:49.466Z,12.62
2018-04-16T02:18:49.460Z,12.73
2018-04-16T02:19:49.465Z,12.67
2018-04-16T02:20:49.441Z,12.68
2018-04-16T02:21:49.439Z,12.75
2018-04-16T02:22:49.431Z,12.68
2018-04-16T02:23:49.420Z,12.78
2018-04-16T02:24:49.423Z,12.67
2018-04-16T02:25:49.413Z,12.67
2018-04-16T02:26:49.399Z,12.72
2018-04-16T02:27:49.394Z,12.70
2018-04-16T02:28:49.387Z,12.65
2018-04-16T02:29:49.385Z,12.68
2018-04-16T02:30:49.376Z,12.62
2018-04-16T02:31:49.366Z,12.65
2018-04-16T02:32:49.359Z,12.67
2018-04-16T02:33:49.349Z,12.55
2018-04-16T02:34:49.346Z,12.55
2018-04-16T02:35:49.347Z,12.54
2018-04-16T02:36:49.334Z,12.57
2018-04-16T02:37:49.331Z,12.57
2018-04-16T02:38:49.322Z,12.57
2018-04-16T02:39:49.315Z,12.57
2018-04-16T02:40:49.312Z,12.53
2018-04-16T02:41:49.296Z,12.49
2018-04-16T02:42:49.292Z,12.54
2018-04-16T02:43:49.286Z,12.49
2018-04-16T02:44:49.285Z,12.53
2018-04-16T02:45:49.270Z,12.49
2018-04-16T02:46:49.259Z,12.53
2018-04-16T02:47:49.253Z,12.53
2018-04-16T02:48:49.246Z,12.50
2018-04-16T02:49:49.243Z,12.47
2018-04-16T02:50:49.243Z,12.45
2018-04-16T02:51:49.230Z,12.45
2018-04-16T02:52:49.223Z,12.43
2018-04-16T02:53:49.216Z,12.37
2018-04-16T02:54:49.223Z,12.35
2018-04-16T02:55:49.200Z,12.40
2018-04-16T02:56:49.192Z,12.37
2018-04-16T02:57:49.187Z,12.39
2018-04-16T02:58:49.184Z,12.32
2018-04-16T02:59:49.175Z,12.35
2018-04-16T03:00:49.163Z,12.36
2018-04-16T03:01:49.153Z,12.29
2018-04-16T03:02:49.147Z,12.29
2018-04-16T03:03:49.140Z,12.35
2018-04-16T03:04:49.139Z,12.31
2018-04-16T03:05:49.129Z,12.35
2018-04-16T03:06:49.116Z,12.29
2018-04-16T03:07:49.111Z,12.27
2018-04-16T03:08:49.111Z,12.27
2018-04-16T03:09:49.101Z,12.32
2018-04-16T03:10:49.095Z,12.18
2018-04-16T03:11:49.087Z,12.28
2018-04-16T03:12:49.080Z,12.25
2018-04-16T03:13:49.071Z,12.21
2018-04-16T03:14:49.065Z,12.28
2018-04-16T03:15:49.056Z,12.15
2018-04-16T03:16:49.058Z,12.18
2018-04-16T03:17:49.043Z,12.18
2018-04-16T03:18:49.038Z,12.13
2018-04-16T03:19:49.029Z,12.18
2018-04-16T03:20:49.017Z,12.03
2018-04-16T03:21:49.016Z,12.03
2018-04-16T03:22:49.003Z,12.02
2018-04-16T03:23:49.003Z,12.09
2018-04-16T03:24:48.992Z,12.09
2018-04-16T03:25:48.987Z,12.06
2018-04-16T03:26:48.976Z,12.04
2018-04-16T03:27:48.973Z,12.02
2018-04-16T03:28:48.964Z,12.02
2018-04-16T03:29:48.957Z,11.99
2018-04-16T03:30:48.955Z,12.02
2018-04-16T03:31:48.945Z,11.95
2018-04-16T03:32:48.937Z,11.99
2018-04-16T03:33:48.928Z,11.97
2018-04-16T03:34:48.921Z,12.02
2018-04-16T03:35:48.914Z,11.91
2018-04-16T03:36:48.910Z,11.86
2018-04-16T03:37:48.896Z,11.87
2018-04-16T03:38:48.893Z,11.88
2018-04-16T03:39:48.884Z,11.97
2018-04-16T03:40:48.877Z,11.87
2018-04-16T03:41:48.866Z,11.88
2018-04-16T03:42:48.860Z,11.99
2018-04-16T03:43:48.858Z,11.90
2018-04-16T03:44:48.849Z,11.94
2018-04-16T03:45:48.842Z,11.88
2018-04-16T03:46:48.831Z,11.86
2018-04-16T03:47:48.829Z,11.88
2018-04-16T03:48:48.819Z,11.87
2018-04-16T03:49:48.807Z,11.87
2018-04-16T03:50:48.798Z,11.90
2018-04-16T03:51:48.804Z,11.83
2018-04-16T03:52:48.787Z,11.84
2018-04-16T03:53:48.781Z,11.78
2018-04-16T03:54:48.776Z,11.77
2018-04-16T03:55:48.763Z,11.75
2018-04-16T03:56:48.758Z,11.72
2018-04-16T03:57:48.748Z,11.68
2018-04-16T03:58:48.762Z,11.68
2018-04-16T03:59:48.735Z,11.68
2018-04-16T04:00:48.729Z,11.69
2018-04-16T04:01:48.718Z,11.70
2018-04-16T04:02:48.712Z,11.63
2018-04-16T04:03:48.708Z,11.66
2018-04-16T04:04:48.694Z,11.63
2018-04-16T04:05:48.694Z,11.65
2018-04-16T04:06:48.685Z,11.66
2018-04-16T04:07:48.677Z,11.68
2018-04-16T04:08:48.667Z,11.62
2018-04-16T04:09:48.657Z,11.59
2018-04-16T04:10:48.651Z,11.62
2018-04-16T04:11:48.644Z,11.63
2018-04-16T04:12:48.645Z,11.63
2018-04-16T04:13:48.632Z,11.55
2018-04-16T04:14:48.624Z,11.54
2018-04-16T04:15:48.619Z,11.59
2018-04-16T04:16:48.603Z,11.55
2018-04-16T04:17:48.598Z,11.54
2018-04-16T04:18:48.590Z,11.54
2018-04-16T04:19:48.586Z,11.57
2018-04-16T04:20:48.576Z,11.55
2018-04-16T04:21:48.570Z,11.63
2018-04-16T04:22:48.562Z,11.52
2018-04-16T04:23:48.580Z,11.44
2018-04-16T04:24:48.549Z,11.54
2018-04-16T04:25:48.540Z,11.50
2018-04-16T04:26:48.533Z,11.44
2018-04-16T04:27:48.527Z,11.41
2018-04-16T04:28:48.517Z,11.50
2018-04-16T04:29:48.505Z,11.47
2018-04-16T04:30:48.500Z,11.43
2018-04-16T04:31:48.495Z,11.40
2018-04-16T04:32:48.488Z,11.47
2018-04-16T04:33:48.480Z,11.43
2018-04-16T04:34:48.475Z,11.44
2018-04-16T04:35:48.465Z,11.44
2018-04-16T04:36:48.456Z,11.37
2018-04-16T04:37:48.450Z,11.37
2018-04-16T04:38:48.442Z,11.36
2018-04-16T04:39:48.436Z,11.33
2018-04-16T04:40:48.427Z,11.37
2018-04-16T04:41:48.420Z,11.36
2018-04-16T04:42:48.416Z,11.43
2018-04-16T04:43:48.405Z,11.35
2018-04-16T04:44:48.402Z,11.27
2018-04-16T04:45:48.387Z,11.40
2018-04-16T04:46:48.381Z,11.26
2018-04-16T04:47:48.374Z,11.40
2018-04-16T04:48:48.367Z,11.44
2018-04-16T04:49:48.395Z,11.22
2018-04-16T04:50:48.348Z,11.29
2018-04-16T04:51:48.340Z,11.26
2018-04-16T04:52:48.337Z,11.26
2018-04-16T04:53:48.328Z,11.43
2018-04-16T04:54:48.320Z,11.37
2018-04-16T04:55:48.318Z,11.36
2018-04-16T04:56:48.302Z,11.40
2018-04-16T04:57:48.293Z,11.37
2018-04-16T04:58:48.292Z,11.36
2018-04-16T04:59:48.292Z,11.33
2018-04-16T05:00:48.279Z,11.45
2018-04-16T05:01:48.268Z,11.29
2018-04-16T05:02:48.260Z,11.44
2018-04-16T05:03:48.252Z,11.35
2018-04-16T05:04:48.242Z,11.40
2018-04-16T05:05:48.232Z,11.41
2018-04-16T05:06:48.226Z,11.43
2018-04-16T05:07:48.225Z,11.35
2018-04-16T05:08:48.212Z,11.36
2018-04-16T05:09:48.208Z,11.41
2018-04-16T05:10:48.198Z,11.40
2018-04-16T05:11:48.186Z,11.41
2018-04-16T05:12:48.179Z,11.36
2018-04-16T05:13:48.171Z,11.33
2018-04-16T05:14:48.175Z,11.44
2018-04-16T05:15:48.161Z,11.43
2018-04-16T05:16:48.149Z,11.44
2018-04-16T05:17:48.145Z,11.44
2018-04-16T05:18:48.135Z,11.41
2018-04-16T05:19:48.125Z,11.44
2018-04-16T05:20:48.127Z,11.44
2018-04-16T05:21:48.115Z,11.40
2018-04-16T05:22:48.112Z,11.27
2018-04-16T05:23:48.102Z,11.47
2018-04-16T05:24:48.089Z,11.40
2018-04-16T05:25:48.079Z,11.41
2018-04-16T05:26:48.072Z,11.35
2018-04-16T05:27:48.068Z,11.37
2018-04-16T05:28:48.060Z,11.43
2018-04-16T05:29:48.057Z,11.47
2018-04-16T05:30:48.046Z,11.44
2018-04-16T05:31:48.054Z,11.62
2018-04-16T05:32:48.027Z,11.63
2018-04-16T05:33:48.028Z,11.63
2018-04-16T05:34:48.015Z,11.66
2018-04-16T05:35:48.009Z,11.72
2018-04-16T05:36:48.003Z,11.78
2018-04-16T05:37:47.991Z,11.81
2018-04-16T05:38:47.981Z,11.84
2018-04-16T05:39:47.975Z,11.94
2018-04-16T05:40:47.966Z,11.81
2018-04-16T05:41:47.965Z,11.95
2018-04-16T05:42:47.962Z,11.88
2018-04-16T05:43:47.951Z,11.94
2018-04-16T05:44:47.944Z,11.86
2018-04-16T05:45:47.935Z,12.00
2018-04-16T05:46:47.932Z,12.04
2018-04-16T05:47:47.925Z,12.09
2018-04-16T05:48:47.911Z,12.04
2018-04-16T05:49:47.915Z,12.06
2018-04-16T05:50:47.904Z,12.22
2018-04-16T05:51:47.893Z,12.24
2018-04-16T05:52:47.885Z,12.18
2018-04-16T05:53:47.880Z,12.20
2018-04-16T05:54:47.874Z,12.31
2018-04-16T05:55:47.868Z,12.28
2018-04-16T05:56:47.862Z,12.31
2018-04-16T05:57:47.855Z,12.27
2018-04-16T05:58:47.848Z,12.37
2018-04-16T05:59:47.842Z,12.36
2018-04-16T06:00:47.830Z,12.31
2018-04-16T06:01:47.827Z,12.39
2018-04-16T06:02:47.817Z,12.40
2018-04-16T06:03:47.816Z,12.36
2018-04-16T06:04:47.805Z,12.46
2018-04-16T06:05:47.801Z,12.49
2018-04-16T06:06:47.791Z,12.45
2018-04-16T06:07:47.792Z,12.45
2018-04-16T06:08:47.778Z,12.53
2018-04-16T06:09:47.776Z,12.53
2018-04-16T06:10:47.766Z,12.53
2018-04-16T06:11:47.770Z,12.54
2018-04-16T06:12:47.759Z,12.60
2018-04-16T06:13:47.744Z,12.65
2018-04-16T06:14:47.743Z,12.60
2018-04-16T06:15:47.737Z,12.64
2018-04-16T06:16:47.730Z,12.64
2018-04-16T06:17:47.723Z,12.61
2018-04-16T06:18:47.718Z,12.76
2018-04-16T06:19:47.711Z,12.79
2018-04-16T06:20:47.705Z,12.85
2018-04-16T06:21:47.697Z,12.93
2018-04-16T06:22:47.692Z,13.04
2018-04-16T06:23:47.686Z,13.11
2018-04-16T06:24:47.679Z,13.22
2018-04-16T06:25:47.669Z,13.23
2018-04-16T06:26:47.667Z,13.28
2018-04-16T06:27:47.658Z,13.37
2018-04-16T06:28:47.660Z,13.38
2018-04-16T06:29:47.651Z,13.39
2018-04-16T06:30:47.644Z,13.57
2018-04-16T06:31:47.646Z,13.52
2018-04-16T06:32:47.630Z,13.46
2018-04-16T06:33:47.626Z,13.39
2018-04-16T06:34:47.622Z,13.50
2018-04-16T06:35:47.617Z,13.50
2018-04-16T06:36:47.616Z,13.57
2018-04-16T06:37:47.605Z,13.52
2018-04-16T06:38:47.599Z,13.44
2018-04-16T06:39:47.593Z,13.53
2018-04-16T06:40:47.588Z,13.38
2018-04-16T06:41:47.581Z,13.44
2018-04-16T06:42:47.574Z,13.46
2018-04-16T06:43:47.572Z,13.60
2018-04-16T06:44:47.566Z,13.54
2018-04-16T06:45:47.564Z,13.62
2018-04-16T06:46:47.560Z,13.65
2018-04-16T06:47:47.549Z,13.71
2018-04-16T06:48:47.542Z,13.75
2018-04-16T06:49:47.537Z,13.89
2018-04-16T06:50:47.541Z,13.99
2018-04-16T06:51:47.529Z,13.97
2018-04-16T06:52:47.522Z,14.05
2018-04-16T06:53:47.517Z,14.12
2018-04-16T06:54:47.512Z,14.15
2018-04-16T06:55:47.519Z,14.15
2018-04-16T06:56:47.501Z,14.18
2018-04-16T06:57:47.499Z,14.15
2018-04-16T06:58:47.495Z,14.30
2018-04-16T06:59:47.511Z,14.40
2018-04-16T07:00:47.498Z,14.43
2018-04-16T07:01:47.479Z,14.50
2018-04-16T07:02:47.480Z,14.53
2018-04-16T07:03:47.468Z,14.63
2018-04-16T07:04:47.479Z,14.65
2018-04-16T07:05:47.468Z,14.68
2018-04-16T07:06:47.456Z,14.84
2018-04-16T07:07:47.510Z,14.94
2018-04-16T07:08:47.533Z,14.96
2018-04-16T07:09:47.439Z,15.03
2018-04-16T07:10:47.437Z,15.06
2018-04-16T07:11:47.436Z,15.15
2018-04-16T07:12:47.428Z,15.22
2018-04-16T07:13:47.439Z,15.24
2018-04-16T07:14:47.425Z,15.33
2018-04-16T07:15:47.450Z,15.31
2018-04-16T07:16:47.430Z,15.33
2018-04-16T07:17:47.561Z,15.29
2018-04-16T07:18:47.494Z,15.29
2018-04-16T07:19:47.403Z,15.36
2018-04-16T07:20:47.396Z,15.33
2018-04-16T07:21:47.394Z,15.36
2018-04-16T07:22:47.393Z,15.37
2018-04-16T07:23:47.384Z,15.39
2018-04-16T07:24:47.382Z,15.37
2018-04-16T07:25:47.377Z,15.40
2018-04-16T07:26:47.380Z,15.31
2018-04-16T07:27:47.370Z,15.29
2018-04-16T07:28:47.365Z,15.36
2018-04-16T07:29:47.364Z,15.37
2018-04-16T07:30:47.351Z,15.36
2018-04-16T07:31:47.349Z,15.42
2018-04-16T07:32:47.346Z,15.31
2018-04-16T07:33:47.342Z,15.29
2018-04-16T07:34:47.342Z,15.35
2018-04-16T07:35:47.342Z,15.25
2018-04-16T07:36:47.333Z,15.43
2018-04-16T07:37:47.327Z,15.40
2018-04-16T07:38:47.322Z,15.36
2018-04-16T07:39:47.320Z,15.37
2018-04-16T07:40:47.318Z,15.42
2018-04-16T07:41:47.339Z,15.39
2018-04-16T07:42:47.312Z,15.55
2018-04-16T07:43:47.362Z,15.49
2018-04-16T07:44:47.306Z,15.73
2018-04-16T07:45:47.301Z,15.80
2018-04-16T07:46:47.294Z,15.83
2018-04-16T07:47:47.294Z,15.92
2018-04-16T07:48:47.288Z,15.97
2018-04-16T07:49:47.282Z,15.92
2018-04-16T07:50:47.283Z,16.09
2018-04-16T07:51:47.277Z,16.08
2018-04-16T07:52:47.295Z,16.15
2018-04-16T07:53:47.269Z,16.16
2018-04-16T07:54:47.271Z,16.28
2018-04-16T07:55:47.267Z,16.35
2018-04-16T07:56:47.265Z,16.29
2018-04-16T07:57:47.268Z,16.31
2018-04-16T07:58:47.260Z,16.32
2018-04-16T07:59:47.253Z,16.31
2018-04-16T08:00:47.249Z,16.35
2018-04-16T08:01:47.245Z,16.38
2018-04-16T08:02:47.246Z,16.43
2018-04-16T08:03:47.245Z,16.61
2018-04-16T08:04:47.243Z,16.76
2018-04-16T08:05:47.239Z,16.83
2018-04-16T08:06:47.234Z,16.99
2018-04-16T08:07:47.238Z,17.19
2018-04-16T08:08:47.239Z,17.33
2018-04-16T08:09:47.234Z,17.56
2018-04-16T08:10:47.233Z,17.67
2018-04-16T08:11:47.235Z,17.92
2018-04-16T08:12:47.231Z,18.07
2018-04-16T08:13:47.236Z,18.28
2018-04-16T08:14:47.234Z,18.35
2018-04-16T08:15:47.236Z,18.53
2018-04-16T08:16:47.238Z,18.53
2018-04-16T08:17:47.279Z,18.52
2018-04-16T08:18:47.245Z,18.55
2018-04-16T08:19:47.234Z,18.62
2018-04-16T08:20:47.236Z,18.68
2018-04-16T08:21:47.238Z,18.78
2018-04-16T08:22:47.246Z,18.86
2018-04-16T08:23:47.241Z,18.98
2018-04-16T08:24:47.246Z,18.98
2018-04-16T08:25:47.242Z,19.08
2018-04-16T08:26:47.245Z,19.11
2018-04-16T08:27:47.248Z,19.14
2018-04-16T08:28:47.252Z,19.21
2018-04-16T08:29:47.257Z,19.21
2018-04-16T08:30:47.259Z,19.14
2018-04-16T08:31:47.257Z,19.09
2018-04-16T08:32:47.261Z,19.16
2018-04-16T08:33:47.260Z,19.36
2018-04-16T08:34:47.264Z,19.44
2018-04-16T08:35:47.265Z,19.51
2018-04-16T08:36:47.271Z,19.52
2018-04-16T08:37:47.273Z,19.52
2018-04-16T08:38:47.275Z,19.54
2018-04-16T08:39:47.278Z,19.66
2018-04-16T08:40:47.278Z,19.70
2018-04-16T08:41:47.281Z,19.84
2018-04-16T08:42:47.286Z,19.95
2018-04-16T08:43:47.294Z,20.16
2018-04-16T08:44:47.295Z,20.29
2018-04-16T08:45:47.297Z,20.37
2018-04-16T08:46:47.301Z,20.39
2018-04-16T08:47:47.302Z,20.47
2018-04-16T08:48:47.307Z,20.56
2018-04-16T08:49:47.314Z,20.65
2018-04-16T08:50:47.323Z,20.84
2018-04-16T08:51:47.326Z,20.84
2018-04-16T08:52:47.329Z,20.93
2018-04-16T08:53:47.331Z,21.00
2018-04-16T08:54:47.336Z,21.06
2018-04-16T08:55:47.341Z,21.14
2018-04-16T08:56:47.346Z,21.15
2018-04-16T08:57:47.350Z,21.25
2018-04-16T08:58:47.366Z,21.35
2018-04-16T08:59:47.363Z,21.45
2018-04-16T09:00:47.375Z,21.61
2018-04-16T09:01:47.370Z,21.62
2018-04-16T09:02:47.378Z,21.55
2018-04-16T09:03:47.381Z,21.52
2018-04-16T09:04:47.391Z,21.37
2018-04-16T09:05:47.396Z,21.46
2018-04-16T09:06:47.408Z,21.37
2018-04-16T09:07:47.407Z,21.48
2018-04-16T09:08:47.429Z,21.50
2018-04-16T09:09:47.417Z,21.62
2018-04-16T09:10:47.426Z,21.73
2018-04-16T09:11:47.430Z,21.77
2018-04-16T09:12:47.434Z,21.82
2018-04-16T09:13:47.441Z,21.83
2018-04-16T09:14:47.443Z,21.89
2018-04-16T09:15:47.452Z,21.89
2018-04-16T09:16:47.461Z,21.92
2018-04-16T09:17:47.464Z,22.08
2018-04-16T09:18:47.472Z,22.20
2018-04-16T09:19:47.477Z,22.38
2018-04-16T09:20:47.479Z,22.53
2018-04-16T09:21:47.483Z,22.57
2018-04-16T09:22:47.492Z,22.65
2018-04-16T09:23:47.499Z,22.76
2018-04-16T09:24:47.507Z,22.81
2018-04-16T09:25:47.512Z,22.81
2018-04-16T09:26:47.524Z,22.91
2018-04-16T09:27:47.525Z,22.78
2018-04-16T09:28:47.528Z,22.85
2018-04-16T09:29:47.534Z,22.93
2018-04-16T09:30:47.549Z,22.83
2018-04-16T09:31:47.555Z,22.80
2018-04-16T09:32:47.565Z,22.66
2018-04-16T09:33:47.565Z,22.55
2018-04-16T09:34:47.568Z,22.32
2018-04-16T09:35:47.574Z,22.22
2018-04-16T09:36:47.579Z,22.10
2018-04-16T09:37:47.591Z,22.02
2018-04-16T09:38:47.592Z,22.02
2018-04-16T09:39:47.597Z,21.98
2018-04-16T09:40:47.599Z,22.10
2018-04-16T09:41:47.603Z,22.17
2018-04-16T09:42:47.611Z,22.22
2018-04-16T09:43:47.618Z,22.23
2018-04-16T09:44:47.623Z,22.23
2018-04-16T09:45:47.625Z,22.18
2018-04-16T09:46:47.631Z,22.18
2018-04-16T09:47:47.638Z,22.17
2018-04-16T09:48:47.638Z,22.02
2018-04-16T09:49:47.644Z,22.00
2018-04-16T09:50:47.651Z,21.98
2018-04-16T09:51:47.657Z,21.91
2018-04-16T09:52:47.658Z,21.85
2018-04-16T09:53:47.665Z,21.89
2018-04-16T09:54:47.664Z,21.85
2018-04-16T09:55:47.669Z,21.88
2018-04-16T09:56:47.673Z,21.93
2018-04-16T09:57:47.679Z,21.98
2018-04-16T09:58:47.685Z,21.92
2018-04-16T09:59:47.692Z,21.83
2018-04-16T10:00:47.691Z,21.95
2018-04-16T10:01:47.690Z,21.98
2018-04-16T10:02:47.694Z,22.14
2018-04-16T10:03:47.703Z,22.13
2018-04-16T10:04:47.708Z,22.13
2018-04-16T10:05:47.710Z,22.17
2018-04-16T10:06:47.716Z,22.26
2018-04-16T10:07:47.722Z,22.17
2018-04-16T10:08:47.729Z,22.18
2018-04-16T10:09:47.766Z,22.22
2018-04-16T10:10:47.729Z,22.18
2018-04-16T10:11:47.737Z,22.23
2018-04-16T10:12:47.740Z,22.26
2018-04-16T10:13:47.746Z,22.28
2018-04-16T10:14:47.753Z,22.39
2018-04-16T10:15:47.752Z,22.54
2018-04-16T10:16:47.756Z,22.73
2018-04-16T10:17:47.765Z,22.94
2018-04-16T10:18:47.769Z,22.94
2018-04-16T10:19:47.775Z,23.17
2018-04-16T10:20:47.779Z,23.28
2018-04-16T10:21:47.781Z,23.50
2018-04-16T10:22:47.788Z,23.65
2018-04-16T10:23:47.798Z,23.87
2018-04-16T10:24:47.802Z,23.80
2018-04-16T10:25:47.808Z,23.96
2018-04-16T10:26:47.815Z,24.16
2018-04-16T10:27:47.821Z,24.17
2018-04-16T10:28:47.856Z,24.38
2018-04-16T10:29:47.834Z,24.36
2018-04-16T10:30:47.840Z,24.33
2018-04-16T10:31:47.852Z,24.42
2018-04-16T10:32:47.859Z,24.33
2018-04-16T10:33:47.867Z,24.35
2018-04-16T10:34:47.872Z,24.14
2018-04-16T10:35:47.875Z,24.10
2018-04-16T10:36:47.883Z,23.96
2018-04-16T10:37:47.889Z,23.92
2018-04-16T10:38:47.900Z,23.78
2018-04-16T10:39:47.921Z,23.65
2018-04-16T10:40:47.928Z,23.46
2018-04-16T10:41:47.913Z,23.31
2018-04-16T10:42:47.920Z,23.17
2018-04-16T10:43:47.927Z,22.91
2018-04-16T10:44:47.931Z,22.84
2018-04-16T10:45:47.939Z,22.76
2018-04-16T10:46:47.988Z,22.76
2018-04-16T10:47:47.955Z,22.84
2018-04-16T10:48:47.959Z,22.96
2018-04-16T10:49:47.959Z,23.03
2018-04-16T10:50:47.962Z,23.00
2018-04-16T10:51:47.969Z,23.27
2018-04-16T10:52:47.975Z,23.39
2018-04-16T10:53:47.975Z,23.51
2018-04-16T10:54:47.979Z,23.59
2018-04-16T10:55:47.984Z,23.74
2018-04-16T10:56:47.993Z,23.80
2018-04-16T10:57:48.017Z,23.86
2018-04-16T10:58:48.006Z,24.01
2018-04-16T10:59:48.007Z,24.03
2018-04-16T11:00:48.011Z,23.99
2018-04-16T11:01:48.016Z,24.02
2018-04-16T11:02:48.024Z,24.05
2018-04-16T11:03:48.031Z,24.01
2018-04-16T11:04:48.038Z,24.08
2018-04-16T11:05:48.043Z,24.02
2018-04-16T11:06:48.048Z,24.16
2018-04-16T11:07:48.058Z,24.16
2018-04-16T11:08:48.061Z,24.23
2018-04-16T11:09:48.061Z,24.30
2018-04-16T11:10:48.068Z,24.36
2018-04-16T11:11:48.082Z,24.32
2018-04-16T11:12:48.089Z,24.38
2018-04-16T11:13:48.091Z,24.43
2018-04-16T11:14:48.098Z,24.42
2018-04-16T11:15:48.101Z,24.38
2018-04-16T11:16:48.107Z,24.26
2018-04-16T11:17:48.113Z,24.10
2018-04-16T11:18:48.121Z,24.03
2018-04-16T11:19:48.127Z,23.80
2018-04-16T11:20:48.137Z,23.68
2018-04-16T11:21:48.139Z,23.66
2018-04-16T11:22:48.148Z,23.80
2018-04-16T11:23:48.155Z,23.91
2018-04-16T11:24:48.162Z,23.91
2018-04-16T11:25:48.166Z,23.95
2018-04-16T11:26:48.175Z,23.81
2018-04-16T11:27:48.180Z,23.71
2018-04-16T11:28:48.181Z,23.69
2018-04-16T11:29:48.186Z,23.73
2018-04-16T11:30:48.192Z,23.68
2018-04-16T11:31:48.201Z,23.71
2018-04-16T11:32:48.204Z,23.63
2018-04-16T11:33:48.249Z,23.43
2018-04-16T11:34:48.211Z,23.47
2018-04-16T11:35:48.214Z,23.44
2018-04-16T11:36:48.217Z,23.51
2018-04-16T11:37:48.224Z,23.61
2018-04-16T11:38:48.229Z,23.65
2018-04-16T11:39:48.238Z,23.73
2018-04-16T11:40:48.240Z,23.88
2018-04-16T11:41:48.250Z,24.08
2018-04-16T11:42:48.254Z,24.23
2018-04-16T11:43:48.258Z,24.36
2018-04-16T11:44:48.265Z,24.42
2018-04-16T11:45:48.274Z,24.17
2018-04-16T11:46:48.281Z,24.14
2018-04-16T11:47:48.288Z,23.99
2018-04-16T11:48:48.290Z,24.05
2018-04-16T11:49:48.296Z,24.06
2018-04-16T11:50:48.383Z,24.05
2018-04-16T11:51:48.319Z,24.05
2018-04-16T11:52:48.314Z,24.06
2018-04-16T11:53:48.318Z,24.02
2018-04-16T11:54:48.323Z,24.21
2018-04-16T11:55:48.342Z,24.28
2018-04-16T11:56:48.336Z,24.40
2018-04-16T11:57:48.344Z,24.33
2018-04-16T11:58:48.351Z,24.21
2018-04-16T11:59:48.375Z,24.21
2018-04-16T12:00:48.363Z,24.23
2018-04-16T12:01:48.368Z,24.20
2018-04-16T12:02:48.373Z,24.26
2018-04-16T12:03:48.377Z,24.33
2018-04-16T12:04:48.385Z,24.51
2018-04-16T12:05:48.396Z,24.61
2018-04-16T12:06:48.400Z,24.69
2018-04-16T12:07:48.406Z,24.77
2018-04-16T12:08:48.414Z,24.92
2018-04-16T12:09:48.415Z,25.01
2018-04-16T12:10:48.422Z,24.96
2018-04-16T12:11:48.431Z,25.06
2018-04-16T12:12:48.440Z,25.16
2018-04-16T12:13:48.446Z,25.25
2018-04-16T12:14:48.452Z,25.33
2018-04-16T12:15:48.497Z,25.33
2018-04-16T12:16:48.465Z,25.43
2018-04-16T12:17:48.473Z,25.43
2018-04-16T12:18:48.485Z,25.55
2018-04-16T12:19:48.493Z,25.54
2018-04-16T12:20:48.497Z,25.58
2018-04-16T12:21:48.506Z,25.75
2018-04-16T12:22:48.605Z,25.95
2018-04-16T12:23:48.528Z,25.95
2018-04-16T12:24:48.525Z,25.75
2018-04-16T12:25:48.536Z,25.66
2018-04-16T12:26:48.545Z,25.63
2018-04-16T12:27:48.602Z,25.53
2018-04-16T12:28:48.565Z,25.40
2018-04-16T12:29:48.604Z,25.35
2018-04-16T12:30:48.576Z,25.16
2018-04-16T12:31:48.583Z,25.10
2018-04-16T12:32:48.654Z,25.11
2018-04-16T12:33:48.600Z,24.99
2018-04-16T12:34:48.609Z,24.92
2018-04-16T12:35:48.624Z,24.88
2018-04-16T12:36:48.616Z,24.80
2018-04-16T12:37:48.624Z,24.80
2018-04-16T12:38:48.629Z,24.81
2018-04-16T12:39:48.635Z,24.80
2018-04-16T12:40:48.648Z,24.91
2018-04-16T12:41:48.651Z,24.84
2018-04-16T12:42:48.658Z,24.84
2018-04-16T12:43:48.689Z,24.74
2018-04-16T12:44:48.742Z,24.57
2018-04-16T12:45:48.673Z,24.40
2018-04-16T12:46:48.677Z,24.29
2018-04-16T12:47:48.688Z,24.11
2018-04-16T12:48:48.692Z,24.10
2018-04-16T12:49:48.698Z,24.06
2018-04-16T12:50:48.699Z,23.98
2018-04-16T12:51:48.707Z,23.87
2018-04-16T12:52:48.714Z,23.77
2018-04-16T12:53:48.718Z,23.58
2018-04-16T12:54:48.727Z,23.62
2018-04-16T12:55:48.730Z,23.74
2018-04-16T12:56:48.733Z,23.76
2018-04-16T12:57:48.748Z,23.80
2018-04-16T12:58:48.740Z,23.88
2018-04-16T12:59:48.747Z,23.86
2018-04-16T13:00:48.752Z,23.86
2018-04-16T13:01:48.755Z,23.91
2018-04-16T13:02:48.761Z,24.03
2018-04-16T13:03:48.765Z,24.05
2018-04-16T13:04:48.764Z,24.01
2018-04-16T13:05:48.773Z,23.98
2018-04-16T13:06:48.783Z,24.05
2018-04-16T13:07:48.792Z,24.05
2018-04-16T13:08:48.784Z,24.05
2018-04-16T13:09:48.795Z,24.06
2018-04-16T13:10:48.813Z,24.05
2018-04-16T13:11:48.796Z,24.16
2018-04-16T13:12:48.804Z,24.14
2018-04-16T13:13:48.804Z,24.11
2018-04-16T13:14:48.812Z,24.05